Time;durP1;ratioP1;P1;durP2;ratioP2;P2;SDS_P1;SDS_P2;PMS_P1;PMS_P2;Temp;Humidity;BMP_temperature;BMP_pressure;BME280_temperature;BME280_humidity;BME280_pressure;Samples;Min_cycle;Max_cycle;Signal;HPM_P1;HPM_P2
2022/08/21 00:02:29;;;;;;;29.53;12.17;;;;;;;20.85;100.00;98369.00;2303397;77;21479;-62
2022/08/21 00:05:30;;;;;;;27.50;10.90;;;;;;;20.82;100.00;98368.02;2298228;77;20984;-63
2022/08/21 00:08:30;;;;;;;29.92;10.85;;;;;;;20.80;100.00;98372.67;2303647;77;21060;-62
2022/08/21 00:11:30;;;;;;;27.30;10.58;;;;;;;20.80;100.00;98363.86;2300092;77;20968;-62
2022/08/21 00:14:31;;;;;;;28.10;11.33;;;;;;;20.81;100.00;98367.67;2292995;77;21036;-63
2022/08/21 00:17:32;;;;;;;22.40;8.73;;;;;;;20.79;100.00;98364.84;2301481;77;21103;-62
2022/08/21 00:20:33;;;;;;;30.43;10.70;;;;;;;20.75;100.00;98367.86;2304465;77;20971;-62
2022/08/21 00:23:33;;;;;;;26.05;10.20;;;;;;;20.58;100.00;98376.34;2290864;77;20968;-62
2022/08/21 00:26:34;;;;;;;30.20;12.27;;;;;;;20.54;100.00;98374.19;2302537;77;20988;-62
2022/08/21 00:29:35;;;;;;;26.52;11.38;;;;;;;20.54;100.00;98376.85;2302816;77;20981;-62
2022/08/21 00:32:36;;;;;;;28.83;12.00;;;;;;;20.55;100.00;98380.68;2302378;77;21491;-62
2022/08/21 00:35:36;;;;;;;54.50;7.70;;;;;;;20.55;100.00;98366.54;2303421;77;21038;-62
2022/08/21 00:38:37;;;;;;;88.47;5.72;;;;;;;20.46;100.00;98368.38;2300533;77;21015;-60
2022/08/21 00:41:37;;;;;;;82.00;7.42;;;;;;;20.40;100.00;98357.91;2302180;77;20952;-61
2022/08/21 00:44:38;;;;;;;50.75;5.72;;;;;;;20.53;100.00;98364.05;2297501;77;21021;-62
2022/08/21 00:47:38;;;;;;;15.93;5.37;;;;;;;20.38;100.00;98362.55;2304620;77;21452;-62
2022/08/21 00:50:39;;;;;;;22.22;7.75;;;;;;;20.40;100.00;98364.56;2293788;77;21498;-62
2022/08/21 00:53:39;;;;;;;23.75;8.38;;;;;;;20.48;100.00;98361.55;2289302;77;20983;-62
2022/08/21 00:56:40;;;;;;;22.13;8.65;;;;;;;20.57;100.00;98353.39;2299485;77;20976;-61
2022/08/21 00:59:40;;;;;;;24.57;10.60;;;;;;;20.56;100.00;98345.05;2298643;77;20955;-63
2022/08/21 01:02:41;;;;;;;24.02;9.53;;;;;;;20.40;100.00;98352.58;2308941;77;20975;-63
2022/08/21 01:05:41;;;;;;;25.92;10.58;;;;;;;20.45;100.00;98354.72;2302015;77;21478;-63
2022/08/21 01:08:42;;;;;;;25.50;10.43;;;;;;;20.45;100.00;98351.24;2307444;77;20975;-62
2022/08/21 01:11:43;;;;;;;25.55;10.82;;;;;;;20.43;100.00;98352.23;2313017;77;21082;-63
2022/08/21 01:14:43;;;;;;;24.25;9.63;;;;;;;20.53;100.00;98353.88;2298854;77;21024;-62
2022/08/21 01:17:44;;;;;;;20.52;7.30;;;;;;;20.60;100.00;98342.88;2302386;77;20925;-63
2022/08/21 01:20:45;;;;;;;20.97;7.40;;;;;;;20.47;100.00;98337.24;2294551;77;20981;-58
2022/08/21 01:23:45;;;;;;;66.80;6.72;;;;;;;20.32;100.00;98339.77;2302173;77;20961;-58
2022/08/21 01:26:46;;;;;;;146.35;7.78;;;;;;;20.17;100.00;98343.59;2285530;77;21463;-59
2022/08/21 01:29:47;;;;;;;36.08;6.50;;;;;;;20.16;100.00;98340.61;2299613;77;20984;-62
2022/08/21 01:32:47;;;;;;;20.10;7.20;;;;;;;20.01;100.00;98339.09;2297818;77;21059;-62
2022/08/21 01:35:48;;;;;;;20.77;7.78;;;;;;;19.95;100.00;98342.42;2301211;77;21007;-61
2022/08/21 01:38:48;;;;;;;17.12;6.30;;;;;;;19.93;100.00;98337.78;2302165;77;20977;-63
2022/08/21 01:41:49;;;;;;;22.62;7.25;;;;;;;19.80;100.00;98340.42;2294467;77;21432;-61
2022/08/21 01:44:49;;;;;;;26.42;7.85;;;;;;;19.89;100.00;98337.27;2298192;77;21059;-63
2022/08/21 01:47:50;;;;;;;28.40;9.90;;;;;;;19.79;100.00;98329.94;2299549;77;20964;-63
2022/08/21 01:50:50;;;;;;;29.07;11.15;;;;;;;19.70;100.00;98318.42;2298005;77;20995;-63
2022/08/21 01:53:51;;;;;;;25.92;9.80;;;;;;;19.79;100.00;98318.79;2305435;77;20964;-63
2022/08/21 01:56:51;;;;;;;26.93;10.48;;;;;;;19.87;100.00;98308.67;2303961;77;20972;-62
2022/08/21 01:59:52;;;;;;;27.90;11.28;;;;;;;19.92;100.00;98307.66;2286277;77;21525;-62
2022/08/21 02:02:53;;;;;;;25.37;10.40;;;;;;;19.86;100.00;98302.50;2300318;77;21003;-62
2022/08/21 02:05:54;;;;;;;28.55;11.65;;;;;;;19.79;100.00;98299.34;2292004;77;21031;-63
2022/08/21 02:08:54;;;;;;;24.30;9.60;;;;;;;19.80;100.00;98293.03;2297623;77;21004;-63
2022/08/21 02:11:54;;;;;;;22.42;8.80;;;;;;;19.97;100.00;98291.18;2289316;77;21079;-62
2022/08/21 02:14:55;;;;;;;20.95;7.92;;;;;;;19.96;100.00;98290.88;2300572;77;21459;-59
2022/08/21 02:17:55;;;;;;;21.50;7.87;;;;;;;19.99;100.00;98289.20;2302434;77;20956;-62
2022/08/21 02:20:56;;;;;;;24.92;8.50;;;;;;;19.98;100.00;98288.35;2296476;77;20987;-62
2022/08/21 02:23:56;;;;;;;21.52;8.03;;;;;;;20.03;100.00;98286.03;2301273;77;20956;-63
2022/08/21 02:26:57;;;;;;;25.90;9.63;;;;;;;19.92;100.00;98288.20;2293512;77;20995;-63
2022/08/21 02:29:57;;;;;;;24.25;9.50;;;;;;;19.87;100.00;98288.20;2297401;77;20972;-62
2022/08/21 02:32:58;;;;;;;23.22;8.30;;;;;;;19.71;100.00;98281.49;2298054;77;21494;-62
2022/08/21 02:35:58;;;;;;;25.70;9.30;;;;;;;19.66;100.00;98282.50;2298438;77;21002;-62
2022/08/21 02:38:59;;;;;;;25.85;10.23;;;;;;;19.67;100.00;98281.02;2300092;77;21050;-62
2022/08/21 02:41:59;;;;;;;23.38;8.70;;;;;;;19.76;100.00;98275.70;2294850;77;21007;-63
2022/08/21 02:45:00;;;;;;;22.75;9.18;;;;;;;19.66;100.00;98279.84;2295141;77;21008;-62
2022/08/21 02:48:01;;;;;;;25.82;9.60;;;;;;;19.60;100.00;98278.67;2299574;77;20976;-62
2022/08/21 02:51:01;;;;;;;31.85;10.55;;;;;;;19.61;100.00;98278.16;2302432;77;20980;-63
2022/08/21 02:54:01;;;;;;;25.27;9.13;;;;;;;19.60;100.00;98273.36;2301155;77;21490;-62
2022/08/21 02:57:02;;;;;;;24.32;8.68;;;;;;;19.59;100.00;98267.70;2302692;77;20968;-60
2022/08/21 03:00:02;;;;;;;23.02;8.48;;;;;;;19.64;100.00;98272.52;2289382;77;21031;-62
2022/08/21 03:03:03;;;;;;;23.20;8.33;;;;;;;19.68;100.00;98276.03;2299832;77;21067;-62
2022/08/21 03:06:04;;;;;;;22.67;8.53;;;;;;;19.62;100.00;98274.52;2305838;77;21000;-61
2022/08/21 03:09:04;;;;;;;28.02;9.68;;;;;;;19.53;100.00;98280.33;2302485;77;21509;-62
2022/08/21 03:12:05;;;;;;;24.52;8.68;;;;;;;19.55;100.00;98283.16;2302239;77;20984;-61
2022/08/21 03:15:06;;;;;;;24.37;8.40;;;;;;;19.50;100.00;98281.99;2297452;77;20989;-62
2022/08/21 03:18:07;;;;;;;26.20;9.05;;;;;;;19.50;100.00;98284.65;2294246;77;21036;-61
2022/08/21 03:21:07;;;;;;;27.27;9.98;;;;;;;19.48;100.00;98290.14;2289676;77;20981;-62
2022/08/21 03:24:09;;;;;;;26.12;9.80;;;;;;;19.38;100.00;98280.97;2290300;77;21471;-63
2022/08/21 03:27:09;;;;;;;28.70;10.30;;;;;;;19.29;100.00;98277.94;2294264;77;20996;-62
2022/08/21 03:30:10;;;;;;;25.48;8.83;;;;;;;19.36;100.00;98274.97;2300241;77;20972;-61
2022/08/21 03:33:10;;;;;;;25.92;9.75;;;;;;;19.32;100.00;98272.80;2288287;77;21039;-62
2022/08/21 03:36:11;;;;;;;30.75;9.75;;;;;;;19.29;100.00;98290.41;2298261;77;20969;-63
2022/08/21 03:39:11;;;;;;;26.10;9.83;;;;;;;19.32;100.00;98289.61;2296016;77;21424;-62
2022/08/21 03:42:12;;;;;;;25.02;9.33;;;;;;;19.21;100.00;98292.56;2289412;77;21058;-62
2022/08/21 03:45:12;;;;;;;26.17;9.35;;;;;;;19.32;100.00;98302.91;2300224;77;21007;-62
2022/08/21 03:48:12;;;;;;;24.95;9.93;;;;;;;19.23;100.00;98315.82;2307927;77;21024;-62
2022/08/21 03:51:13;;;;;;;33.48;12.13;;;;;;;19.19;100.00;98312.66;2302292;77;21054;-62
2022/08/21 03:54:14;;;;;;;26.15;10.30;;;;;;;19.25;100.00;98321.83;2297590;77;20984;-63
2022/08/21 03:57:14;;;;;;;23.55;9.85;;;;;;;19.30;100.00;98330.64;2293707;77;21467;-62
2022/08/21 04:00:15;;;;;;;25.97;10.23;;;;;;;19.27;100.00;98329.13;2298274;77;20993;-63
2022/08/21 04:03:15;;;;;;;28.15;10.38;;;;;;;19.28;100.00;98336.12;2285389;77;20984;-63
2022/08/21 04:06:16;;;;;;;27.32;10.13;;;;;;;19.39;100.00;98342.95;2297591;77;20998;-63
2022/08/21 04:09:16;;;;;;;25.77;10.55;;;;;;;19.47;100.00;98340.33;2295738;77;21038;-62
2022/08/21 04:12:17;;;;;;;27.02;11.15;;;;;;;19.44;100.00;98343.31;2301007;77;20952;-60
2022/08/21 04:15:17;;;;;;;27.20;11.12;;;;;;;19.50;100.00;98343.98;2304027;77;21482;-63
2022/08/21 04:18:18;;;;;;;24.50;9.85;;;;;;;19.56;100.00;98347.31;2294840;77;21012;-63
2022/08/21 04:21:18;;;;;;;23.95;10.23;;;;;;;19.52;100.00;98352.65;2298132;77;20984;-63
2022/08/21 04:24:19;;;;;;;23.22;10.90;;;;;;;19.41;100.00;98346.77;2290475;77;20960;-63
2022/08/21 04:27:19;;;;;;;25.30;11.75;;;;;;;19.50;100.00;98337.33;2295234;77;20959;-63
2022/08/21 04:30:20;;;;;;;26.87;12.20;;;;;;;19.63;100.00;98338.70;2303688;77;21474;-63
2022/08/21 04:33:21;;;;;;;26.40;11.68;;;;;;;19.74;100.00;98338.39;2296253;77;20967;-63
2022/08/21 04:36:21;;;;;;;25.43;11.28;;;;;;;19.70;100.00;98342.38;2289141;77;21007;-63
2022/08/21 04:39:21;;;;;;;25.50;10.78;;;;;;;19.78;100.00;98345.02;2301248;77;20956;-62
2022/08/21 04:42:22;;;;;;;25.40;11.53;;;;;;;19.85;100.00;98340.73;2299030;77;21019;-62
2022/08/21 04:45:23;;;;;;;28.60;11.45;;;;;;;19.88;100.00;98343.09;2290435;77;21018;-62
2022/08/21 04:48:23;;;;;;;28.07;12.35;;;;;;;20.07;100.00;98345.11;2304150;77;21470;-61
2022/08/21 04:51:24;;;;;;;28.20;12.25;;;;;;;20.20;100.00;98341.44;2302264;77;21483;-62
2022/08/21 04:54:25;;;;;;;30.20;12.15;;;;;;;20.25;100.00;98339.59;2302268;77;21063;-62
2022/08/21 04:57:26;;;;;;;23.70;11.25;;;;;;;20.40;100.00;98339.26;2302183;77;20996;-62
2022/08/21 05:00:27;;;;;;;26.12;11.75;;;;;;;20.43;100.00;98342.09;2293687;77;20997;-63
2022/08/21 05:03:28;;;;;;;26.25;11.97;;;;;;;20.57;100.00;98331.22;2293309;77;21473;-62
2022/08/21 05:06:28;;;;;;;26.05;12.03;;;;;;;20.78;100.00;98334.71;2304631;77;20969;-62
2022/08/21 05:09:30;;;;;;;29.25;12.10;;;;;;;20.87;100.00;98340.84;2285597;77;21041;-63
2022/08/21 05:12:30;;;;;;;29.07;12.40;;;;;;;20.96;100.00;98337.17;2301925;77;21130;-62
2022/08/21 05:15:31;;;;;;;26.52;12.95;;;;;;;20.99;100.00;98335.97;2303193;77;21470;-62
2022/08/21 05:18:32;;;;;;;28.60;12.15;;;;;;;21.09;100.00;98339.29;2302136;77;21003;-62
2022/08/21 05:21:33;;;;;;;26.05;12.20;;;;;;;21.18;100.00;98336.08;2293011;77;21023;-62
2022/08/21 05:24:34;;;;;;;27.95;12.28;;;;;;;21.20;100.00;98334.88;2299447;77;21513;-62
2022/08/21 05:27:34;;;;;;;25.72;11.80;;;;;;;21.29;100.00;98331.67;2286920;77;21458;-63
2022/08/21 05:30:35;;;;;;;26.60;11.65;;;;;;;21.44;100.00;98331.27;2260434;77;21699;-62
2022/08/21 05:33:36;;;;;;;29.00;12.90;;;;;;;21.66;100.00;98331.50;2305619;77;20988;-60
2022/08/21 05:36:36;;;;;;;29.07;12.17;;;;;;;21.77;100.00;98331.61;2297791;77;20968;-62
2022/08/21 05:39:37;;;;;;;28.97;11.73;;;;;;;21.88;100.00;98334.35;2295159;77;20964;-59
2022/08/21 05:42:37;;;;;;;25.63;11.33;;;;;;;22.01;100.00;98332.42;2297478;77;21458;-60
2022/08/21 05:45:38;;;;;;;22.40;10.13;;;;;;;22.15;100.00;98334.30;2292941;77;21506;-61
2022/08/21 05:48:38;;;;;;;24.15;10.13;;;;;;;22.40;100.00;98344.31;2295265;77;21470;-62
2022/08/21 05:51:39;;;;;;;23.27;9.85;;;;;;;22.57;100.00;98349.48;2298610;77;20937;-62
2022/08/21 05:54:39;;;;;;;22.67;9.73;;;;;;;22.68;100.00;98345.03;2296170;77;20960;-62
2022/08/21 05:57:41;;;;;;;22.33;9.93;;;;;;;22.75;100.00;98344.63;2293278;77;20979;-62
2022/08/21 06:00:42;;;;;;;25.20;10.23;;;;;;;23.01;100.00;98342.00;2295904;77;21060;-63
2022/08/21 06:03:42;;;;;;;24.33;10.37;;;;;;;23.09;100.00;98344.58;2296461;77;21007;-62
2022/08/21 06:06:42;;;;;;;24.00;9.60;;;;;;;23.23;100.00;98346.11;2297905;77;21079;-61
2022/08/21 06:09:43;;;;;;;25.73;9.53;;;;;;;23.44;100.00;98352.85;2299230;77;21007;-62
2022/08/21 06:12:43;;;;;;;26.40;11.23;;;;;;;23.59;100.00;98354.17;2301674;77;20992;-62
2022/08/21 06:15:44;;;;;;;25.67;10.97;;;;;;;23.77;100.00;98353.73;2295807;77;21005;-62
2022/08/21 06:18:45;;;;;;;21.17;7.73;;;;;;;24.10;100.00;98355.13;2294953;77;20992;-61
2022/08/21 06:21:46;;;;;;;20.33;8.00;;;;;;;24.21;100.00;98353.27;2302507;77;20965;-62
2022/08/21 06:24:46;;;;;;;26.03;8.17;;;;;;;24.32;100.00;98350.06;2302567;77;21075;-63
2022/08/21 06:27:46;;;;;;;20.80;7.90;;;;;;;24.59;100.00;98346.23;2294369;77;20995;-62
2022/08/21 06:30:47;;;;;;;25.53;7.50;;;;;;;24.89;100.00;98350.88;2291659;77;20984;-63
2022/08/21 06:33:47;;;;;;;21.17;7.33;;;;;;;25.10;100.00;98346.47;2302481;77;21033;-63
2022/08/21 06:36:48;;;;;;;17.97;6.93;;;;;;;25.35;100.00;98345.98;2297902;77;21051;-64
2022/08/21 06:39:49;;;;;;;20.70;7.60;;;;;;;25.62;100.00;98346.91;2302965;77;21009;-61
2022/08/21 06:42:49;;;;;;;20.30;7.50;;;;;;;25.62;100.00;98346.91;2252671;78;21479;-63
2022/08/21 06:45:50;;;;;;;18.80;6.67;;;;;;;25.71;100.00;98351.05;2252370;78;20981;-63
2022/08/21 06:48:51;;;;;;;20.53;7.50;;;;;;;25.87;100.00;98348.49;2262706;78;20962;-63
2022/08/21 06:51:52;;;;;;;19.70;7.10;;;;;;;25.97;100.00;98348.63;2266504;78;20984;-63
2022/08/21 06:54:52;;;;;;;19.97;7.20;;;;;;;25.96;100.00;98357.21;2263992;78;21052;-63
2022/08/21 06:57:53;;;;;;;20.07;7.27;;;;;;;26.17;100.00;98360.24;2273120;78;21050;-63
2022/08/21 07:00:54;;;;;;;18.23;6.40;;;;;;;26.07;100.00;98355.80;2268494;78;21518;-63
2022/08/21 07:03:54;;;;;;;18.75;6.72;;;;;;;26.15;100.00;98358.30;2255150;78;21099;-63
2022/08/21 07:06:55;;;;;;;20.50;7.43;;;;;;;26.11;100.00;98358.39;2266738;78;20980;-63
2022/08/21 07:09:56;;;;;;;21.77;7.10;;;;;;;26.03;100.00;98354.05;2260238;78;21004;-63
2022/08/21 07:12:56;;;;;;;20.60;7.03;;;;;;;26.18;100.00;98359.22;2257431;78;21710;-62
2022/08/21 07:15:57;;;;;;;20.37;6.93;;;;;;;26.31;100.00;98354.89;2257420;78;20972;-59
2022/08/21 07:18:57;;;;;;;20.67;7.17;;;;;;;26.45;100.00;98352.52;2255070;78;20980;-62
2022/08/21 07:21:58;;;;;;;20.77;6.83;;;;;;;26.57;100.00;98358.08;2268369;78;21490;-61
2022/08/21 07:24:58;;;;;;;21.80;7.73;;;;;;;26.63;100.00;98355.89;2266740;78;20996;-58
2022/08/21 07:27:59;;;;;;;20.27;6.43;;;;;;;26.65;100.00;98358.37;2266545;78;21015;-61
2022/08/21 07:31:00;;;;;;;18.70;6.43;;;;;;;26.76;100.00;98355.89;2253996;78;20986;-62
2022/08/21 07:34:00;;;;;;;18.70;7.13;;;;;;;26.78;100.00;98355.19;2258290;78;20985;-63
2022/08/21 07:37:01;;;;;;;25.50;7.37;;;;;;;26.75;100.00;98358.80;2268760;78;21527;-62
2022/08/21 07:40:01;;;;;;;18.80;6.80;;;;;;;26.92;100.00;98357.34;2268889;78;20983;-62
2022/08/21 07:43:02;;;;;;;21.40;7.30;;;;;;;26.91;100.00;98353.48;2262244;78;21084;-62
2022/08/21 07:46:03;;;;;;;20.57;7.22;;;;;;;26.61;100.00;98362.01;2258751;78;21055;-61
2022/08/21 07:49:03;;;;;;;21.63;8.23;;;;;;;26.49;100.00;98365.83;2273825;78;21019;-62
2022/08/21 07:52:04;;;;;;;20.63;7.63;;;;;;;26.54;100.00;98357.97;2261478;78;20995;-63
2022/08/21 07:55:04;;;;;;;20.60;7.70;;;;;;;26.58;100.00;98355.70;2273625;78;21458;-62
2022/08/21 07:58:05;;;;;;;21.67;8.03;;;;;;;26.65;100.00;98359.22;2269830;78;21023;-61
2022/08/21 08:01:06;;;;;;;21.48;7.53;;;;;;;26.73;100.00;98356.84;2269979;78;21471;-62
2022/08/21 08:04:06;;;;;;;19.90;7.30;;;;;;;26.82;100.00;98356.92;2255166;78;20992;-63
2022/08/21 08:07:07;;;;;;;19.60;7.20;;;;;;;26.92;100.00;98357.34;2261531;78;20972;-62
2022/08/21 08:10:07;;;;;;;20.30;7.43;;;;;;;26.83;100.00;98355.89;2264692;78;20987;-63
2022/08/21 08:13:08;;;;;;;20.40;7.70;;;;;;;26.94;100.00;98359.81;2256758;78;21704;-62
2022/08/21 08:16:08;;;;;;;19.77;7.30;;;;;;;27.08;100.00;98357.39;2273629;78;21427;-61
2022/08/21 08:19:09;;;;;;;19.47;7.20;;;;;;;27.29;100.00;98352.76;2268990;78;20961;-63
2022/08/21 08:22:09;;;;;;;21.57;6.97;;;;;;;27.53;100.00;98349.89;2259277;78;21435;-62
2022/08/21 08:25:10;;;;;;;18.47;7.40;;;;;;;27.61;100.00;98356.88;2269156;78;21042;-62
2022/08/21 08:28:10;;;;;;;20.93;7.40;;;;;;;27.45;100.00;98352.81;2254861;78;21024;-62
2022/08/21 08:31:11;;;;;;;21.17;7.80;;;;;;;27.56;100.00;98354.02;2268106;78;20968;-61
2022/08/21 08:34:11;;;;;;;20.80;7.70;;;;;;;27.77;100.00;98358.23;2272300;78;20996;-62
2022/08/21 08:37:12;;;;;;;22.22;7.45;;;;;;;28.02;100.00;98350.78;2265231;78;20982;-64
2022/08/21 08:40:12;;;;;;;22.80;7.57;;;;;;;28.21;100.00;98348.44;2270303;78;21561;-62
2022/08/21 08:43:13;;;;;;;21.23;7.70;;;;;;;28.26;100.00;98349.13;2272396;78;21560;-62
2022/08/21 08:46:15;;;;;;;20.75;6.97;;;;;;;28.38;100.00;98350.06;2273300;78;21540;-63
2022/08/21 08:49:15;;;;;;;21.05;7.50;;;;;;;28.48;100.00;98348.23;2261158;78;21015;-63
2022/08/21 08:52:16;;;;;;;22.20;7.70;;;;;;;28.73;100.00;98346.05;2253153;78;21027;-63
2022/08/21 08:55:16;;;;;;;22.20;7.90;;;;;;;29.23;95.11;98341.88;2264270;78;20965;-63
2022/08/21 08:58:17;;;;;;;21.83;7.60;;;;;;;29.11;97.40;98340.98;2267261;78;21539;-63
2022/08/21 09:01:17;;;;;;;23.00;7.40;;;;;;;29.38;96.38;98342.86;2253036;78;20981;-63
2022/08/21 09:04:18;;;;;;;20.65;7.22;;;;;;;29.84;98.44;98333.82;2272056;78;20976;-62
2022/08/21 09:07:19;;;;;;;19.98;7.37;;;;;;;30.34;94.49;98333.98;2269002;78;21000;-61
2022/08/21 09:10:20;;;;;;;20.82;7.42;;;;;;;30.41;91.22;98331.98;2273539;78;21060;-60
2022/08/21 09:13:21;;;;;;;17.37;6.83;;;;;;;30.38;91.72;98339.22;2266179;78;21034;-63
2022/08/21 09:16:23;;;;;;;23.15;7.70;;;;;;;30.26;91.39;98332.96;2265179;78;21075;-63
2022/08/21 09:19:24;;;;;;;19.70;7.60;;;;;;;29.99;88.08;98335.57;2257328;79;20975;-61
2022/08/21 09:22:25;;;;;;;21.25;7.60;;;;;;;29.76;90.98;98334.14;2256727;78;21021;-63
2022/08/21 09:25:26;;;;;;;19.40;7.73;;;;;;;29.51;88.34;98332.37;2258124;78;21041;-62
2022/08/21 09:28:26;;;;;;;20.70;7.40;;;;;;;29.11;91.17;98335.05;2258496;78;20992;-62
2022/08/21 09:31:27;;;;;;;23.20;7.57;;;;;;;28.59;89.08;98332.67;2260954;78;20984;-62
2022/08/21 09:34:27;;;;;;;25.17;7.93;;;;;;;28.28;95.58;98328.17;2252110;78;21214;-61
2022/08/21 09:37:28;;;;;;;24.10;8.27;;;;;;;28.11;94.19;98322.50;2264712;78;20988;-63
2022/08/21 09:40:30;;;;;;;;;;;;;;;28.38;92.86;98314.20;2264445;78;21470;-63
2022/08/21 09:43:31;;;;;;;22.42;7.75;;;;;;;28.64;93.08;98318.53;2268481;78;20104;-63
2022/08/21 09:46:32;;;;;;;26.70;7.90;;;;;;;28.79;92.33;98324.91;2266336;78;21545;-62
2022/08/21 09:49:32;;;;;;;24.07;7.77;;;;;;;29.00;94.12;98314.20;2268857;78;21004;-62
2022/08/21 09:52:33;;;;;;;19.73;7.73;;;;;;;29.38;91.49;98311.27;2263066;78;21004;-62
2022/08/21 09:58:37;;;;;;;23.73;7.97;;;;;;;29.47;88.93;98310.95;2237563;78;21023;-61
2022/08/21 10:01:37;;;;;;;22.82;7.85;;;;;;;29.51;87.37;98303.51;2258574;78;20948;-61
2022/08/21 10:04:37;;;;;;;22.03;8.10;;;;;;;29.44;91.52;98296.53;2255326;78;21480;-61
2022/08/21 10:07:38;;;;;;;20.93;7.53;;;;;;;29.57;87.79;98299.57;2262155;78;21496;-63
2022/08/21 10:10:39;;;;;;;23.40;7.97;;;;;;;29.50;88.65;98295.64;2273100;78;21020;-63
2022/08/21 10:13:39;;;;;;;21.53;8.20;;;;;;;29.85;89.54;98286.83;2263242;78;20991;-63
2022/08/21 10:16:39;;;;;;;21.50;8.37;;;;;;;29.96;86.11;98286.57;2255692;78;20983;-62
2022/08/21 10:19:40;;;;;;;21.17;8.10;;;;;;;30.00;88.27;98281.00;2269400;78;21035;-61
2022/08/21 10:22:40;;;;;;;22.77;7.60;;;;;;;30.28;85.08;98287.59;2257116;78;21045;-62
2022/08/21 10:25:41;;;;;;;20.77;7.90;;;;;;;30.29;85.52;98287.89;2263758;78;21004;-62
2022/08/21 10:28:41;;;;;;;22.90;8.50;;;;;;;29.78;83.69;98295.00;2256001;78;21083;-61
2022/08/21 10:31:42;;;;;;;22.40;8.43;;;;;;;29.45;85.75;98300.89;2262991;78;20988;-63
2022/08/21 10:34:42;;;;;;;22.33;8.80;;;;;;;29.17;86.91;98294.17;2264466;78;21246;-62
2022/08/21 10:37:43;;;;;;;21.07;8.53;;;;;;;29.50;92.87;98291.59;2260254;78;21055;-61
2022/08/21 10:40:43;;;;;;;20.30;8.23;;;;;;;29.71;87.22;98298.33;2273553;78;21250;-63
2022/08/21 10:43:44;;;;;;;25.93;8.87;;;;;;;29.86;83.39;98293.35;2259711;78;20979;-62
2022/08/21 10:46:44;;;;;;;23.20;8.40;;;;;;;29.76;86.01;98293.61;2264727;78;20995;-62
2022/08/21 10:49:45;;;;;;;22.87;8.30;;;;;;;29.79;86.49;98283.14;2268123;78;21536;-62
2022/08/21 10:52:46;;;;;;;23.67;8.78;;;;;;;30.20;87.01;98286.88;2268647;78;21015;-63
2022/08/21 10:55:46;;;;;;;22.67;8.10;;;;;;;30.70;83.11;98281.55;2251498;78;21000;-63
2022/08/21 10:58:46;;;;;;;23.07;8.00;;;;;;;30.67;84.48;98284.70;2263953;78;21072;-63
2022/08/21 11:01:47;;;;;;;24.50;8.27;;;;;;;30.64;82.32;98284.38;2261129;78;20988;-64
2022/08/21 11:04:48;;;;;;;21.12;8.53;;;;;;;30.40;83.95;98283.83;2267666;78;20988;-63
2022/08/21 11:07:48;;;;;;;20.20;8.05;;;;;;;30.29;81.01;98287.36;2263003;78;21538;-62
2022/08/21 11:10:49;;;;;;;25.23;8.50;;;;;;;30.17;81.09;98283.30;2273705;78;20996;-63
2022/08/21 11:13:51;;;;;;;23.40;8.67;;;;;;;30.17;81.39;98282.45;2273869;78;21020;-62
2022/08/21 11:16:51;;;;;;;20.08;8.38;;;;;;;30.47;84.79;98280.20;2263503;78;20997;-63
2022/08/21 11:19:52;;;;;;;23.30;8.37;;;;;;;30.77;83.17;98284.64;2259172;78;21490;-63
2022/08/21 11:22:54;;;;;;;20.80;8.30;;;;;;;30.49;82.51;98285.68;2272582;78;20960;-63
2022/08/21 11:25:55;;;;;;;21.27;8.25;;;;;;;30.48;81.21;98285.37;2263304;78;21011;-63
2022/08/21 11:28:55;;;;;;;24.33;8.73;;;;;;;30.07;80.58;98291.17;2262526;78;21013;-63
2022/08/21 11:31:56;;;;;;;22.45;9.38;;;;;;;29.86;86.29;98285.24;2273571;78;21014;-62
2022/08/21 11:34:58;;;;;;;24.80;8.93;;;;;;;29.29;91.18;98295.06;2273419;78;21050;-63
2022/08/21 11:37:58;;;;;;;22.85;9.50;;;;;;;28.68;91.03;98299.52;2267520;78;20987;-60
2022/08/21 11:40:59;;;;;;;23.77;10.07;;;;;;;28.22;95.38;98293.48;2257243;79;20960;-62
2022/08/21 11:43:59;;;;;;;23.90;9.77;;;;;;;27.70;97.65;98291.45;2252255;78;21007;-63
2022/08/21 11:47:00;;;;;;;24.07;10.18;;;;;;;27.70;97.65;98291.45;2249410;78;21003;-63
2022/08/21 11:50:00;;;;;;;26.53;10.47;;;;;;;27.58;99.63;98298.06;2250025;78;21018;-63
2022/08/21 11:53:01;;;;;;;22.67;10.17;;;;;;;27.40;100.00;98292.89;2272027;78;20960;-62
2022/08/21 11:56:01;;;;;;;25.13;10.90;;;;;;;27.29;100.00;98289.49;2263334;78;21044;-62
2022/08/21 11:59:02;;;;;;;26.53;10.60;;;;;;;27.17;100.00;98288.50;2255529;78;21542;-62
2022/08/21 12:02:02;;;;;;;24.97;11.30;;;;;;;27.12;100.00;98285.11;2255369;79;21676;-61
2022/08/21 12:05:03;;;;;;;23.97;10.43;;;;;;;27.10;100.00;98285.33;2251950;78;21091;-63
2022/08/21 12:08:03;;;;;;;27.07;11.03;;;;;;;27.00;100.00;98286.84;2270798;78;21070;-63
2022/08/21 12:11:04;;;;;;;21.97;9.97;;;;;;;26.92;100.00;98286.54;2250395;78;21020;-63
2022/08/21 12:14:05;;;;;;;23.30;10.40;;;;;;;27.03;100.00;98284.53;2264747;78;20987;-63
2022/08/21 12:17:05;;;;;;;25.30;10.70;;;;;;;27.08;100.00;98276.66;2263363;78;21482;-63
2022/08/21 12:20:06;;;;;;;25.10;11.80;;;;;;;27.12;100.00;98284.61;2269522;78;21510;-64
2022/08/21 12:23:06;;;;;;;23.97;11.23;;;;;;;27.21;100.00;98276.27;2256448;78;21025;-63
2022/08/21 12:26:07;;;;;;;27.57;11.97;;;;;;;27.21;100.00;98277.13;2259580;78;21012;-62
2022/08/21 12:29:08;;;;;;;30.53;13.20;;;;;;;27.24;100.00;98281.22;2254884;78;21080;-62
2022/08/21 12:32:09;;;;;;;26.77;12.20;;;;;;;27.08;100.00;98290.61;2264200;78;21022;-61
2022/08/21 12:35:10;;;;;;;25.57;12.40;;;;;;;26.90;100.00;98289.45;2256751;78;21454;-62
2022/08/21 12:38:10;;;;;;;29.67;12.73;;;;;;;26.92;100.00;98286.54;2262117;78;20996;-61
2022/08/21 12:41:11;;;;;;;25.90;12.93;;;;;;;26.85;100.00;98279.86;2273780;78;20967;-63
2022/08/21 12:44:11;;;;;;;26.57;12.73;;;;;;;26.90;100.00;98270.61;2264055;78;21049;-63
2022/08/21 12:47:12;;;;;;;27.35;13.55;;;;;;;27.11;100.00;98272.19;2254547;78;21022;-62
2022/08/21 12:50:13;;;;;;;29.07;13.93;;;;;;;27.13;100.00;98264.72;2266743;78;21493;-60
2022/08/21 12:53:14;;;;;;;30.93;12.60;;;;;;;26.96;100.00;98263.55;2276868;78;21042;-61
2022/08/21 12:56:15;;;;;;;;;;;;;;;26.92;100.00;98267.70;2276196;78;21000;-62
2022/08/21 12:59:15;;;;;;;26.95;13.15;;;;;;;26.94;100.00;98262.95;2265540;78;20105;-62
2022/08/21 13:02:16;;;;;;;27.27;12.37;;;;;;;26.88;100.00;98265.13;2265425;78;21458;-61
2022/08/21 13:05:17;;;;;;;26.30;12.65;;;;;;;26.80;100.00;98262.17;2258217;78;21518;-63
2022/08/21 13:08:17;;;;;;;25.40;12.43;;;;;;;26.76;100.00;98263.09;2263587;78;20989;-61
2022/08/21 13:11:18;;;;;;;29.70;12.73;;;;;;;26.74;100.00;98265.72;2268862;78;21036;-63
2022/08/21 13:14:18;;;;;;;27.40;12.63;;;;;;;26.68;100.00;98259.78;2264297;78;20991;-63
2022/08/21 13:17:19;;;;;;;32.20;13.03;;;;;;;26.73;100.00;98270.25;2273258;78;20960;-63
2022/08/21 13:20:19;;;;;;;30.80;13.83;;;;;;;26.70;100.00;98265.83;2262086;78;20964;-63
2022/08/21 13:23:20;;;;;;;24.70;12.30;;;;;;;26.63;100.00;98263.11;2262250;78;21519;-63
2022/08/21 13:26:21;;;;;;;28.77;12.87;;;;;;;26.56;100.00;98259.61;2265805;78;21067;-63
2022/08/21 13:29:21;;;;;;;26.10;12.73;;;;;;;26.52;100.00;98263.26;2269119;78;21035;-63
2022/08/21 13:32:23;;;;;;;25.13;12.43;;;;;;;26.50;100.00;98255.91;2259639;78;21024;-63
2022/08/21 13:35:25;;;;;;;26.30;12.82;;;;;;;26.55;100.00;98263.33;2266476;78;21483;-62
2022/08/21 13:38:25;;;;;;;28.27;12.15;;;;;;;26.39;100.00;98269.98;2272809;78;20936;-61
2022/08/21 13:41:27;;;;;;;30.60;12.77;;;;;;;26.32;100.00;98273.20;2258192;78;20988;-63
2022/08/21 13:44:28;;;;;;;26.95;13.18;;;;;;;26.18;100.00;98277.78;2256397;78;21023;-63
2022/08/21 13:47:28;;;;;;;26.70;12.27;;;;;;;26.04;100.00;98274.27;2262503;78;20965;-62
2022/08/21 13:50:29;;;;;;;24.70;12.73;;;;;;;26.01;100.00;98273.34;2264997;78;21039;-64
2022/08/21 13:53:30;;;;;;;25.53;12.33;;;;;;;26.04;100.00;98270.23;2262338;78;20991;-63